Time;durP1;ratioP1;P1;durP2;ratioP2;P2;SDS_P1;SDS_P2;PMS_P1;PMS_P2;Temp;Humidity;BMP_temperature;BMP_pressure;BME280_temperature;BME280_humidity;BME280_pressure;Samples;Min_cycle;Max_cycle;Signal;HPM_P1;HPM_P2
2021/07/26 00:01:47;;;;;;;7.47;4.68;;;21.40;99.90;;;;;;5071134;28;20036;-65
2021/07/26 00:04:13;;;;;;;9.70;5.45;;;21.40;99.90;;;;;;5071400;28;20037;-65
2021/07/26 00:06:38;;;;;;;9.35;5.15;;;21.30;99.90;;;;;;5052414;28;20378;-64
2021/07/26 00:09:04;;;;;;;5.03;4.53;;;21.30;99.90;;;;;;5072832;28;20403;-64
2021/07/26 00:11:30;;;;;;;9.75;4.70;;;21.40;99.90;;;;;;5090904;28;20490;-65
2021/07/26 00:13:55;;;;;;;7.20;4.40;;;21.40;99.90;;;;;;5072796;28;20054;-65
2021/07/26 00:16:21;;;;;;;6.63;5.35;;;21.50;99.90;;;;;;5090775;28;20177;-65
2021/07/26 00:18:46;;;;;;;7.97;5.93;;;21.50;99.90;;;;;;5067709;28;20131;-66
2021/07/26 00:21:12;;;;;;;7.10;5.28;;;21.50;99.90;;;;;;5068326;28;20048;-65
2021/07/26 00:23:38;;;;;;;7.28;5.30;;;21.50;99.90;;;;;;5050921;28;20078;-65
2021/07/26 00:26:03;;;;;;;11.63;5.75;;;21.50;99.90;;;;;;5068206;28;20051;-65
2021/07/26 00:28:29;;;;;;;7.88;5.05;;;21.40;99.90;;;;;;5067303;28;20049;-65
2021/07/26 00:30:55;;;;;;;15.15;6.13;;;21.40;99.90;;;;;;5051492;28;20032;-65
2021/07/26 00:34:15;;;;;;;9.57;5.25;;;21.40;99.90;;;;;;5050756;28;20158;-65
2021/07/26 00:36:46;;;;;;;7.30;4.60;;;21.40;99.90;;;;;;5051217;28;20028;-65
2021/07/26 00:39:13;;;;;;;5.82;4.18;;;21.50;99.90;;;;;;5068236;28;20075;-64
2021/07/26 00:41:40;;;;;;;6.07;4.90;;;21.50;99.90;;;;;;5050718;28;20025;-64
2021/07/26 00:44:06;;;;;;;6.28;4.85;;;21.50;99.90;;;;;;5051126;28;20071;-65
2021/07/26 00:46:32;;;;;;;5.30;4.10;;;21.40;99.90;;;;;;5050484;28;20025;-64
2021/07/26 00:49:00;;;;;;;5.72;4.72;;;21.40;99.90;;;;;;5071564;28;20066;-64
2021/07/26 00:51:26;;;;;;;7.07;4.65;;;21.50;99.90;;;;;;5090162;28;20028;-65
2021/07/26 00:53:53;;;;;;;10.23;5.75;;;21.50;99.90;;;;;;5072639;28;20131;-65
2021/07/26 00:56:19;;;;;;;6.70;4.80;;;21.50;99.90;;;;;;5089874;28;20020;-63
2021/07/26 00:58:45;;;;;;;9.48;5.07;;;21.50;99.90;;;;;;5090766;28;20059;-65
2021/07/26 01:01:14;;;;;;;8.48;5.35;;;21.50;99.90;;;;;;5090475;28;20464;-65
2021/07/26 01:03:43;;;;;;;7.13;5.07;;;21.50;99.90;;;;;;5089509;28;20073;-63
2021/07/26 01:06:10;;;;;;;7.28;4.80;;;21.50;99.90;;;;;;5072354;28;20362;-64
2021/07/26 01:08:36;;;;;;;6.30;4.95;;;21.50;99.90;;;;;;5089305;28;20350;-64
2021/07/26 01:11:04;;;;;;;7.20;5.03;;;21.40;99.90;;;;;;5090566;28;20028;-65
2021/07/26 01:13:30;;;;;;;8.93;5.22;;;21.40;99.90;;;;;;5071827;28;20031;-65
2021/07/26 01:15:55;;;;;;;6.75;4.90;;;21.30;99.90;;;;;;5071899;28;20031;-64
2021/07/26 01:18:29;;;;;;;7.18;5.18;;;21.30;99.90;;;;;;5090182;28;20103;-63
2021/07/26 01:21:05;;;;;;;6.75;5.15;;;21.40;99.90;;;;;;5072154;28;20020;-63
2021/07/26 01:23:33;;;;;;;8.02;5.05;;;21.40;99.90;;;;;;5071752;28;20024;-64
2021/07/26 01:25:59;;;;;;;5.38;4.85;;;21.30;99.90;;;;;;5072192;28;20048;-65
2021/07/26 01:28:28;;;;;;;6.32;4.30;;;21.30;99.90;;;;;;5071456;28;20047;-64
2021/07/26 01:30:55;;;;;;;7.25;4.20;;;21.30;99.90;;;;;;5090278;28;20024;-64
2021/07/26 01:33:20;;;;;;;7.45;4.05;;;21.30;99.90;;;;;;5089640;28;20064;-65
2021/07/26 01:35:46;;;;;;;7.88;5.15;;;21.20;99.90;;;;;;5071912;28;20070;-65
2021/07/26 01:38:12;;;;;;;6.05;4.45;;;21.20;99.90;;;;;;5071732;28;20441;-65
2021/07/26 01:40:40;;;;;;;7.88;5.00;;;21.10;99.90;;;;;;5089517;28;20082;-65
2021/07/26 01:43:09;;;;;;;8.38;4.60;;;21.00;99.90;;;;;;5090225;28;20267;-65
2021/07/26 01:45:36;;;;;;;6.32;4.78;;;21.00;99.90;;;;;;5071148;28;20125;-65
2021/07/26 01:48:14;;;;;;;7.65;5.03;;;21.10;99.90;;;;;;5089986;28;20032;-65
2021/07/26 01:50:48;;;;;;;11.48;4.93;;;21.00;99.90;;;;;;5071606;28;20350;-65
2021/07/26 01:53:14;;;;;;;6.93;4.18;;;21.00;99.90;;;;;;5090023;28;20028;-65
2021/07/26 01:55:40;;;;;;;8.60;5.40;;;21.00;99.90;;;;;;5071273;28;20043;-65
2021/07/26 01:58:06;;;;;;;10.60;5.38;;;20.90;99.90;;;;;;5089980;28;20028;-65
2021/07/26 02:00:31;;;;;;;5.95;4.65;;;20.90;99.90;;;;;;5070738;28;20465;-64
2021/07/26 02:02:57;;;;;;;6.15;4.65;;;20.90;99.90;;;;;;5090233;28;20095;-65
2021/07/26 02:05:23;;;;;;;5.70;4.68;;;20.90;99.90;;;;;;5070998;28;20303;-65
2021/07/26 02:07:49;;;;;;;5.68;5.07;;;20.80;99.90;;;;;;5077720;28;20154;-65
2021/07/26 02:10:15;;;;;;;12.45;5.35;;;20.90;99.90;;;;;;5089948;28;20022;-65
2021/07/26 02:12:40;;;;;;;8.85;4.40;;;20.80;99.90;;;;;;5088010;28;20163;-65
2021/07/26 02:15:06;;;;;;;9.98;5.15;;;20.90;99.90;;;;;;5089224;28;20449;-65
2021/07/26 02:17:32;;;;;;;9.35;5.30;;;20.90;99.90;;;;;;5091541;28;20028;-65
2021/07/26 02:19:57;;;;;;;15.00;6.05;;;20.90;99.90;;;;;;5091966;28;20380;-66
2021/07/26 02:22:23;;;;;;;8.70;5.35;;;20.80;99.90;;;;;;5091148;28;20024;-64
2021/07/26 02:24:48;;;;;;;9.68;5.40;;;20.90;99.90;;;;;;5091849;28;20027;-64
2021/07/26 02:27:15;;;;;;;9.10;5.40;;;20.90;99.90;;;;;;5093251;28;20039;-65
2021/07/26 02:29:40;;;;;;;9.15;5.88;;;20.90;99.90;;;;;;5091232;28;20024;-65
2021/07/26 02:32:06;;;;;;;8.30;6.30;;;20.80;99.90;;;;;;5091776;28;20082;-65
2021/07/26 02:34:32;;;;;;;11.05;6.00;;;20.70;99.90;;;;;;5091262;28;20024;-64
2021/07/26 02:36:58;;;;;;;10.07;5.40;;;20.70;99.90;;;;;;5092813;28;20037;-67
2021/07/26 02:39:24;;;;;;;6.88;5.80;;;20.80;99.90;;;;;;5091173;28;20162;-65
2021/07/26 02:41:49;;;;;;;9.90;6.28;;;20.90;99.90;;;;;;5093092;28;20103;-65
2021/07/26 02:44:15;;;;;;;9.27;6.30;;;20.80;99.90;;;;;;5091686;28;20089;-64
2021/07/26 02:46:40;;;;;;;7.70;5.82;;;20.90;99.90;;;;;;5092368;28;20480;-64
2021/07/26 02:49:06;;;;;;;10.43;6.70;;;20.90;99.90;;;;;;5091251;28;20134;-64
2021/07/26 02:51:32;;;;;;;7.85;5.20;;;20.80;99.90;;;;;;5091888;28;20024;-64
2021/07/26 02:53:57;;;;;;;9.43;5.97;;;20.80;99.90;;;;;;5091434;28;20024;-65
2021/07/26 02:56:23;;;;;;;10.35;5.65;;;20.80;99.90;;;;;;5090516;28;20028;-64
2021/07/26 02:58:48;;;;;;;12.65;6.28;;;20.80;99.90;;;;;;5092576;28;20118;-64
2021/07/26 03:01:16;;;;;;;6.35;5.43;;;20.70;99.90;;;;;;5093039;28;20389;-63
2021/07/26 03:03:42;;;;;;;8.02;6.68;;;20.70;99.90;;;;;;5092061;28;20027;-64
2021/07/26 03:06:18;;;;;;;7.82;6.55;;;20.70;99.90;;;;;;5092205;28;20438;-65
2021/07/26 03:08:44;;;;;;;7.97;6.10;;;20.70;99.90;;;;;;5090536;28;20142;-64
2021/07/26 03:11:10;;;;;;;7.28;5.45;;;20.70;99.90;;;;;;5092582;28;20024;-65
2021/07/26 03:13:40;;;;;;;8.98;5.75;;;20.70;99.90;;;;;;5090527;28;20522;-65
2021/07/26 03:16:10;;;;;;;8.18;6.05;;;20.70;99.90;;;;;;5092822;28;20110;-64
2021/07/26 03:18:36;;;;;;;8.73;5.72;;;20.70;99.90;;;;;;5090339;28;20320;-64
2021/07/26 03:21:03;;;;;;;7.95;5.32;;;20.50;99.90;;;;;;5090883;28;20028;-64
2021/07/26 03:23:29;;;;;;;9.13;5.70;;;20.40;99.90;;;;;;5090127;28;20024;-63
2021/07/26 03:25:55;;;;;;;7.95;5.43;;;20.40;99.90;;;;;;5090329;28;20078;-64
2021/07/26 03:28:21;;;;;;;15.63;6.40;;;20.30;99.90;;;;;;5091184;28;20043;-64
2021/07/26 03:30:46;;;;;;;8.88;6.75;;;20.20;99.90;;;;;;5091566;28;20023;-64
2021/07/26 03:33:12;;;;;;;7.30;5.70;;;20.20;99.90;;;;;;5090590;28;20032;-63
2021/07/26 03:35:38;;;;;;;7.47;6.18;;;20.20;99.90;;;;;;5091100;28;20460;-64
2021/07/26 03:38:05;;;;;;;6.70;5.38;;;20.30;99.90;;;;;;5090307;28;20032;-64
2021/07/26 03:40:34;;;;;;;10.02;5.78;;;20.40;99.90;;;;;;5090083;28;20032;-64
2021/07/26 03:43:01;;;;;;;11.95;6.70;;;20.30;99.90;;;;;;5090491;28;20051;-65
2021/07/26 03:45:28;;;;;;;8.38;5.90;;;20.30;99.90;;;;;;5088271;28;20476;-65
2021/07/26 03:47:56;;;;;;;11.57;7.05;;;20.30;99.90;;;;;;5073641;28;20036;-65
2021/07/26 03:50:22;;;;;;;10.38;6.50;;;20.30;99.90;;;;;;5070674;28;20036;-65
2021/07/26 03:52:50;;;;;;;7.03;5.60;;;20.20;99.90;;;;;;5071488;28;20113;-65
2021/07/26 03:55:21;;;;;;;8.82;5.97;;;20.00;99.90;;;;;;5069885;28;20426;-64
2021/07/26 03:57:47;;;;;;;11.35;5.57;;;20.00;99.90;;;;;;5069866;28;20071;-64
2021/07/26 04:00:15;;;;;;;6.70;6.00;;;20.10;99.90;;;;;;5069521;28;20032;-64
2021/07/26 04:02:42;;;;;;;10.32;5.75;;;20.00;99.90;;;;;;5069165;28;20382;-64
2021/07/26 04:05:15;;;;;;;7.15;5.80;;;20.20;99.90;;;;;;5069612;28;20035;-64
2021/07/26 04:07:44;;;;;;;9.88;6.47;;;20.20;99.90;;;;;;5061781;28;20055;-64
2021/07/26 04:10:11;;;;;;;11.82;6.63;;;20.20;99.90;;;;;;5033037;28;20466;-64
2021/07/26 04:12:37;;;;;;;11.32;5.85;;;20.10;99.90;;;;;;5032496;28;20511;-64
2021/07/26 04:15:08;;;;;;;15.75;6.38;;;20.00;99.90;;;;;;5032744;28;20064;-64
2021/07/26 04:17:35;;;;;;;10.73;5.82;;;19.90;99.90;;;;;;5050113;28;20033;-65
2021/07/26 04:20:02;;;;;;;7.43;5.60;;;19.60;99.90;;;;;;5032642;28;20484;-63
2021/07/26 04:22:27;;;;;;;10.15;5.88;;;19.40;99.90;;;;;;5050011;28;20171;-63
2021/07/26 04:24:53;;;;;;;6.72;5.85;;;19.60;99.90;;;;;;5032633;28;20521;-65
2021/07/26 04:27:19;;;;;;;13.50;5.80;;;19.70;99.90;;;;;;5032104;28;20032;-64
2021/07/26 04:29:44;;;;;;;14.60;6.25;;;19.70;99.90;;;;;;5032466;28;20025;-63
2021/07/26 04:32:10;;;;;;;9.63;6.05;;;19.60;99.90;;;;;;5032538;28;20477;-64
2021/07/26 04:34:36;;;;;;;12.57;6.28;;;19.70;99.90;;;;;;5031827;28;20444;-63
2021/07/26 04:37:02;;;;;;;12.68;6.53;;;19.60;99.90;;;;;;5032301;28;20040;-63
2021/07/26 04:39:28;;;;;;;8.85;6.25;;;19.60;99.90;;;;;;5031617;28;20031;-65
2021/07/26 04:41:53;;;;;;;8.90;5.18;;;19.60;99.90;;;;;;5032741;28;20056;-64
2021/07/26 04:44:19;;;;;;;11.85;5.55;;;19.50;99.90;;;;;;5049462;28;20029;-63
2021/07/26 04:46:45;;;;;;;8.68;5.63;;;19.50;99.90;;;;;;5049787;28;20079;-64
2021/07/26 04:49:10;;;;;;;9.57;4.90;;;19.60;99.90;;;;;;5032353;28;20411;-65
2021/07/26 04:51:37;;;;;;;11.95;6.90;;;19.50;99.90;;;;;;5031667;28;20140;-65
2021/07/26 04:54:02;;;;;;;8.63;5.82;;;19.60;99.90;;;;;;5032210;28;20108;-65
2021/07/26 04:56:28;;;;;;;10.70;5.70;;;19.60;99.90;;;;;;5049225;28;20108;-65
2021/07/26 04:58:54;;;;;;;8.55;5.55;;;19.80;99.90;;;;;;5050277;28;20069;-66
2021/07/26 05:01:19;;;;;;;7.75;5.20;;;19.90;99.90;;;;;;5049449;28;20108;-64
2021/07/26 05:03:45;;;;;;;8.02;5.63;;;19.70;99.90;;;;;;5031658;28;20025;-64
2021/07/26 05:06:11;;;;;;;6.95;5.05;;;19.60;99.90;;;;;;5031666;28;20373;-64
2021/07/26 05:08:36;;;;;;;6.30;5.30;;;19.70;99.90;;;;;;5059746;28;20072;-65
2021/07/26 05:11:02;;;;;;;7.10;5.32;;;19.80;99.90;;;;;;5070289;28;20442;-65
2021/07/26 05:13:27;;;;;;;7.40;5.40;;;19.70;99.90;;;;;;5067935;28;20027;-66
2021/07/26 05:15:53;;;;;;;13.95;6.40;;;19.80;99.90;;;;;;5070246;28;20033;-65
2021/07/26 05:18:19;;;;;;;9.48;4.85;;;19.90;99.90;;;;;;5069820;28;20354;-66
2021/07/26 05:20:44;;;;;;;6.40;5.18;;;20.10;99.90;;;;;;5069929;28;20052;-65
2021/07/26 05:23:10;;;;;;;8.30;5.53;;;20.30;99.90;;;;;;5068352;28;20378;-65
2021/07/26 05:25:41;;;;;;;7.28;4.85;;;20.30;99.90;;;;;;5069319;28;20489;-65
2021/07/26 05:28:06;;;;;;;9.90;5.77;;;20.30;99.90;;;;;;5068290;28;20037;-65
2021/07/26 05:30:32;;;;;;;8.50;5.90;;;20.40;99.90;;;;;;5069049;28;20580;-65
2021/07/26 05:32:58;;;;;;;7.10;4.65;;;20.50;99.90;;;;;;5068410;28;20126;-65
2021/07/26 05:35:23;;;;;;;8.65;4.93;;;20.50;99.90;;;;;;5067969;28;20083;-65
2021/07/26 05:37:49;;;;;;;5.95;5.32;;;20.50;99.90;;;;;;5068147;28;20067;-65
2021/07/26 05:40:15;;;;;;;9.50;6.10;;;20.40;99.90;;;;;;5069369;28;20455;-65
2021/07/26 05:42:40;;;;;;;7.97;5.32;;;20.40;99.90;;;;;;5067447;28;20028;-65
2021/07/26 05:45:08;;;;;;;7.88;5.15;;;20.30;99.90;;;;;;5067903;28;20029;-65
2021/07/26 05:47:34;;;;;;;6.50;5.80;;;20.20;99.90;;;;;;5067288;28;20068;-68
2021/07/26 05:49:59;;;;;;;9.15;5.82;;;20.40;99.90;;;;;;5070448;28;20473;-65
2021/07/26 05:52:25;;;;;;;6.85;6.07;;;20.40;99.90;;;;;;5071315;28;20123;-66
2021/07/26 05:54:51;;;;;;;7.50;5.40;;;20.40;99.90;;;;;;5071542;28;20331;-66
2021/07/26 05:57:18;;;;;;;8.20;5.68;;;20.50;99.90;;;;;;5072909;28;20035;-67
2021/07/26 05:59:44;;;;;;;10.82;6.15;;;20.60;99.90;;;;;;5073355;28;20420;-67
2021/07/26 06:02:10;;;;;;;7.90;6.07;;;20.70;99.90;;;;;;5071904;28;20025;-66
2021/07/26 06:04:36;;;;;;;7.70;5.80;;;20.70;99.90;;;;;;5071200;28;20173;-65
2021/07/26 06:07:01;;;;;;;10.85;6.70;;;20.70;99.90;;;;;;5069856;28;20049;-66
2021/07/26 06:09:27;;;;;;;10.65;5.28;;;20.50;99.90;;;;;;5052457;28;20037;-66
2021/07/26 06:11:53;;;;;;;7.88;5.47;;;20.60;99.90;;;;;;5053188;28;20454;-65
2021/07/26 06:14:20;;;;;;;6.68;5.30;;;20.60;99.90;;;;;;5052137;28;20048;-65
2021/07/26 06:16:50;;;;;;;6.20;5.60;;;20.70;99.90;;;;;;5052668;28;20028;-65
2021/07/26 06:19:18;;;;;;;14.63;7.27;;;20.90;99.90;;;;;;5028368;28;20033;-69
2021/07/26 06:21:50;;;;;;;12.32;5.82;;;21.00;99.90;;;;;;5034767;28;20067;-66
2021/07/26 06:24:17;;;;;;;8.15;5.63;;;21.10;99.90;;;;;;5034574;28;20025;-65
2021/07/26 06:26:47;;;;;;;10.43;5.45;;;21.10;99.90;;;;;;5034493;28;20025;-65
2021/07/26 06:29:13;;;;;;;7.32;5.47;;;21.10;99.90;;;;;;5034647;28;20453;-67
2021/07/26 06:31:42;;;;;;;9.35;5.15;;;21.10;99.90;;;;;;5051964;28;20116;-65
2021/07/26 06:34:09;;;;;;;6.45;5.20;;;21.20;99.90;;;;;;5034412;28;20025;-66
2021/07/26 06:36:35;;;;;;;7.68;5.93;;;21.10;99.90;;;;;;5033702;28;20029;-65
2021/07/26 06:39:02;;;;;;;9.30;5.13;;;20.90;99.90;;;;;;5052889;28;20060;-64
2021/07/26 06:41:27;;;;;;;9.48;5.50;;;21.00;99.90;;;;;;5052235;28;20420;-64
2021/07/26 06:43:53;;;;;;;7.18;5.03;;;20.80;99.90;;;;;;5052708;28;20108;-65
2021/07/26 06:46:22;;;;;;;8.00;4.85;;;21.00;99.90;;;;;;5033878;28;20080;-64
2021/07/26 06:48:48;;;;;;;5.15;4.10;;;21.20;99.90;;;;;;5034319;28;20039;-65
2021/07/26 06:51:14;;;;;;;9.10;4.70;;;21.30;99.90;;;;;;5034174;28;20068;-65
2021/07/26 06:53:40;;;;;;;5.93;4.57;;;21.40;99.90;;;;;;5033508;28;20029;-64
2021/07/26 06:56:07;;;;;;;6.45;3.95;;;21.50;99.90;;;;;;5034221;28;20021;-63
2021/07/26 06:58:34;;;;;;;4.38;3.80;;;21.60;99.90;;;;;;5033808;28;20033;-65
2021/07/26 07:01:17;;;;;;;6.20;4.20;;;21.60;99.90;;;;;;5033595;28;20492;-65
2021/07/26 07:03:44;;;;;;;7.03;4.32;;;21.70;99.90;;;;;;5034191;28;20021;-67
2021/07/26 07:06:14;;;;;;;6.72;4.80;;;21.60;99.90;;;;;;5033731;28;20025;-65
2021/07/26 07:08:40;;;;;;;4.40;4.00;;;21.40;99.90;;;;;;5050804;28;20477;-65
2021/07/26 07:11:11;;;;;;;5.68;4.78;;;21.70;99.90;;;;;;5051963;28;20025;-64
2021/07/26 07:13:39;;;;;;;5.00;4.28;;;21.70;99.90;;;;;;5033217;28;20041;-64
2021/07/26 07:16:16;;;;;;;6.68;4.43;;;21.80;99.90;;;;;;5051623;28;20070;-64
2021/07/26 07:18:42;;;;;;;8.80;4.43;;;22.10;99.90;;;;;;5051732;28;20029;-64
2021/07/26 07:21:08;;;;;;;7.45;4.20;;;22.10;99.90;;;;;;5033671;28;20139;-64
2021/07/26 07:23:33;;;;;;;9.27;5.10;;;22.20;99.90;;;;;;5033025;28;20528;-65
2021/07/26 07:26:00;;;;;;;6.72;4.22;;;22.20;99.90;;;;;;5033515;28;20036;-65
2021/07/26 07:28:26;;;;;;;4.85;3.80;;;22.00;99.90;;;;;;5032594;28;20075;-65
2021/07/26 07:30:51;;;;;;;5.50;4.55;;;22.10;99.90;;;;;;5051574;28;20370;-64
2021/07/26 07:33:17;;;;;;;5.88;4.43;;;22.30;99.90;;;;;;5050727;28;20036;-65
2021/07/26 07:35:43;;;;;;;10.35;3.78;;;22.50;99.90;;;;;;5033567;28;20025;-65
2021/07/26 07:38:08;;;;;;;4.50;3.83;;;22.40;99.90;;;;;;5033770;28;20431;-65
2021/07/26 07:40:37;;;;;;;5.68;3.90;;;22.50;99.90;;;;;;5048109;28;20482;-65
2021/07/26 07:43:03;;;;;;;8.25;4.05;;;22.50;99.90;;;;;;5053231;28;20029;-60
2021/07/26 07:45:30;;;;;;;6.10;3.70;;;22.70;99.90;;;;;;5070444;28;20090;-60
2021/07/26 07:47:56;;;;;;;6.93;3.47;;;22.90;99.90;;;;;;5052772;28;20040;-62
2021/07/26 07:50:22;;;;;;;6.90;3.22;;;23.10;99.90;;;;;;5052179;28;20024;-60
2021/07/26 07:52:48;;;;;;;10.52;3.20;;;23.20;99.90;;;;;;5070998;28;20438;-62
2021/07/26 07:55:13;;;;;;;6.70;3.58;;;23.20;99.90;;;;;;5053193;28;20025;-63
2021/07/26 07:57:39;;;;;;;6.38;3.03;;;23.10;99.90;;;;;;5052176;28;20488;-61
2021/07/26 08:00:09;;;;;;;10.70;2.90;;;23.30;99.90;;;;;;5070811;28;20529;-61
2021/07/26 08:02:34;;;;;;;7.00;3.60;;;23.30;99.90;;;;;;5055440;28;20032;-62
2021/07/26 08:05:00;;;;;;;5.15;3.35;;;23.60;99.90;;;;;;5060559;28;20025;-63
2021/07/26 08:07:26;;;;;;;4.80;2.88;;;23.80;99.90;;;;;;5056894;28;20554;-62
2021/07/26 08:09:51;;;;;;;6.57;2.50;;;24.10;99.90;;;;;;5071853;28;20040;-62
2021/07/26 08:12:18;;;;;;;5.88;3.47;;;24.40;99.90;;;;;;5061138;28;20079;-55
2021/07/26 08:14:45;;;;;;;8.40;3.35;;;24.80;99.90;;;;;;5034668;28;20021;-54
2021/07/26 08:17:11;;;;;;;8.32;3.28;;;25.10;99.90;;;;;;5050712;28;20029;-50
2021/07/26 08:19:37;;;;;;;6.13;2.90;;;25.30;99.90;;;;;;5057367;28;20017;-49
2021/07/26 08:22:04;;;;;;;6.10;2.72;;;25.50;99.90;;;;;;5058619;28;20051;-49
2021/07/26 08:24:30;;;;;;;3.13;2.83;;;25.50;99.70;;;;;;5051199;28;20040;-53
2021/07/26 08:26:55;;;;;;;8.38;2.95;;;25.70;99.50;;;;;;5033963;28;20029;-51
2021/07/26 08:29:21;;;;;;;7.68;3.10;;;25.80;99.10;;;;;;5049953;28;20140;-56
2021/07/26 08:31:47;;;;;;;6.35;2.35;;;25.90;99.30;;;;;;5049570;28;20471;-49
2021/07/26 08:34:13;;;;;;;6.15;2.83;;;26.00;98.50;;;;;;5055523;28;20361;-48
2021/07/26 08:36:38;;;;;;;7.72;3.05;;;26.10;98.20;;;;;;5050758;28;20024;-48
2021/07/26 08:39:04;;;;;;;3.83;2.65;;;26.30;98.00;;;;;;5051899;28;20028;-46
2021/07/26 08:41:30;;;;;;;6.75;3.25;;;26.40;97.80;;;;;;5069067;28;20025;-48
2021/07/26 08:43:56;;;;;;;12.20;3.88;;;26.60;97.60;;;;;;5051844;28;20036;-48
2021/07/26 08:46:21;;;;;;;5.03;2.72;;;26.50;97.20;;;;;;5050962;28;20105;-56
2021/07/26 08:48:48;;;;;;;5.28;2.72;;;26.50;97.30;;;;;;5069416;28;20066;-47
2021/07/26 08:51:20;;;;;;;4.20;2.72;;;26.10;96.80;;;;;;5069447;28;20032;-46
2021/07/26 08:53:48;;;;;;;10.60;3.28;;;26.20;97.20;;;;;;5069227;28;20426;-47
2021/07/26 08:56:16;;;;;;;5.43;2.58;;;26.20;97.40;;;;;;5069716;28;20031;-46
2021/07/26 08:58:42;;;;;;;4.78;2.67;;;26.30;96.90;;;;;;5068446;28;20033;-45
2021/07/26 09:01:11;;;;;;;3.80;2.30;;;26.40;96.00;;;;;;5069174;28;20020;-47
2021/07/26 09:03:37;;;;;;;9.15;3.30;;;26.60;97.60;;;;;;5067971;28;20059;-48
2021/07/26 09:06:03;;;;;;;5.40;2.67;;;27.00;97.30;;;;;;5050470;28;20071;-47
2021/07/26 09:08:37;;;;;;;6.38;3.42;;;27.60;95.80;;;;;;5075940;28;20075;-48
2021/07/26 09:11:04;;;;;;;11.55;2.75;;;27.50;95.90;;;;;;5089068;28;20028;-48
2021/07/26 09:13:35;;;;;;;5.68;2.05;;;27.30;95.80;;;;;;5087000;28;20035;-50
2021/07/26 09:16:17;;;;;;;5.35;2.20;;;27.10;94.40;;;;;;5085392;28;20028;-46
2021/07/26 09:18:44;;;;;;;4.75;2.17;;;26.80;95.80;;;;;;5087892;28;20076;-47
2021/07/26 09:21:10;;;;;;;2.90;2.00;;;26.60;95.10;;;;;;5086400;28;20020;-47
2021/07/26 09:23:39;;;;;;;10.02;2.58;;;26.70;94.80;;;;;;5087061;28;20115;-47
2021/07/26 09:26:24;;;;;;;3.90;2.10;;;26.60;96.10;;;;;;5090376;28;20063;-48
2021/07/26 09:28:50;;;;;;;2.80;2.53;;;27.10;96.00;;;;;;5091648;28;20047;-48
2021/07/26 09:31:16;;;;;;;7.22;2.53;;;27.10;96.20;;;;;;5093485;28;20012;-48
2021/07/26 09:33:43;;;;;;;3.63;2.65;;;26.90;95.80;;;;;;5093475;28;20115;-46
2021/07/26 09:36:22;;;;;;;4.72;2.85;;;27.30;95.50;;;;;;5094579;28;20024;-49
2021/07/26 09:38:48;;;;;;;3.70;2.30;;;27.40;95.90;;;;;;5092662;28;20028;-48
2021/07/26 09:41:14;;;;;;;4.55;2.33;;;27.20;95.70;;;;;;5092592;28;20114;-47
2021/07/26 09:43:41;;;;;;;5.05;1.58;;;27.60;93.80;;;;;;5092154;28;20035;-47
2021/07/26 09:46:07;;;;;;;2.25;1.77;;;27.60;92.70;;;;;;5092997;28;20028;-47
2021/07/26 09:48:33;;;;;;;3.90;2.33;;;27.40;93.50;;;;;;5093301;28;20032;-47
2021/07/26 09:51:03;;;;;;;2.13;1.80;;;27.40;92.90;;;;;;5094453;28;20028;-47
2021/07/26 09:53:30;;;;;;;3.70;2.20;;;27.30;93.90;;;;;;5092962;28;20028;-48
2021/07/26 09:55:56;;;;;;;4.60;2.30;;;27.20;93.90;;;;;;5093072;28;20032;-46
2021/07/26 09:58:42;;;;;;;2.75;1.60;;;27.60;93.80;;;;;;5094176;28;20085;-47
2021/07/26 10:01:12;;;;;;;3.10;2.15;;;27.90;93.10;;;;;;5092317;28;20127;-48
2021/07/26 10:03:39;;;;;;;4.75;2.28;;;28.10;92.00;;;;;;5092085;28;20055;-47
2021/07/26 10:06:06;;;;;;;4.15;2.60;;;28.40;91.80;;;;;;5094133;28;20020;-47
2021/07/26 10:08:32;;;;;;;5.53;1.95;;;28.30;91.40;;;;;;5093134;28;20073;-49
2021/07/26 10:10:58;;;;;;;4.13;1.80;;;28.30;91.20;;;;;;5075754;28;20046;-47
2021/07/26 10:13:24;;;;;;;2.75;1.60;;;28.20;91.10;;;;;;5074549;28;20461;-47
2021/07/26 10:15:50;;;;;;;5.88;2.20;;;28.40;90.90;;;;;;5075469;28;20024;-47
2021/07/26 10:18:16;;;;;;;2.25;1.85;;;28.50;90.80;;;;;;5093830;28;20028;-47
2021/07/26 10:20:48;;;;;;;3.03;1.92;;;28.50;90.80;;;;;;5093001;28;20110;-47
2021/07/26 10:23:19;;;;;;;3.97;2.10;;;28.40;89.80;;;;;;5075065;28;20032;-47
2021/07/26 10:25:57;;;;;;;4.15;2.17;;;28.30;91.10;;;;;;5074976;28;20444;-47
2021/07/26 10:28:25;;;;;;;4.60;1.98;;;28.60;90.70;;;;;;5092618;28;20040;-48
2021/07/26 10:30:50;;;;;;;4.07;1.85;;;29.00;89.70;;;;;;5093489;28;20052;-47
2021/07/26 10:33:16;;;;;;;5.05;2.05;;;28.70;90.00;;;;;;5093486;28;20096;-47
2021/07/26 10:35:53;;;;;;;4.20;2.03;;;28.60;90.50;;;;;;5073778;28;20358;-47
2021/07/26 10:38:54;;;;;;;4.60;2.05;;;28.40;90.30;;;;;;5093469;28;20059;-47
2021/07/26 10:41:45;;;;;;;2.53;1.67;;;28.30;90.30;;;;;;4991337;28;20423;-47
2021/07/26 10:44:16;;;;;;;2.15;1.52;;;28.10;89.50;;;;;;5089043;28;20072;-47
2021/07/26 10:46:51;;;;;;;2.53;1.95;;;27.70;90.20;;;;;;5073787;28;20370;-46
2021/07/26 10:49:17;;;;;;;1.95;1.58;;;28.00;90.30;;;;;;5092415;28;20059;-47
2021/07/26 10:51:49;;;;;;;2.10;1.52;;;28.20;90.10;;;;;;5092143;28;20143;-47
2021/07/26 10:54:31;;;;;;;6.75;1.90;;;28.00;90.10;;;;;;5092999;28;20024;-47
2021/07/26 10:57:00;;;;;;;2.78;1.92;;;28.20;89.00;;;;;;5074961;28;20028;-46
2021/07/26 10:59:25;;;;;;;4.03;1.88;;;27.90;87.30;;;;;;5092244;28;20031;-47
2021/07/26 11:02:02;;;;;;;4.07;2.67;;;27.70;90.00;;;;;;5092556;28;20028;-46
2021/07/26 11:04:36;;;;;;;4.80;1.73;;;27.70;90.30;;;;;;5091803;28;20016;-49
2021/07/26 11:07:03;;;;;;;4.13;1.80;;;28.00;88.60;;;;;;5092437;28;20474;-46
2021/07/26 11:09:32;;;;;;;4.43;2.00;;;27.60;88.00;;;;;;5092637;28;20062;-47
2021/07/26 11:11:59;;;;;;;4.78;2.38;;;27.40;89.30;;;;;;5092905;28;20130;-46
2021/07/26 11:14:26;;;;;;;5.28;1.80;;;27.30;89.70;;;;;;5074228;28;20024;-50
2021/07/26 11:17:02;;;;;;;15.52;2.35;;;27.10;90.10;;;;;;5092669;28;20051;-47
2021/07/26 11:19:37;;;;;;;4.88;1.55;;;27.10;90.30;;;;;;5091746;28;20031;-47
2021/07/26 11:22:24;;;;;;;4.18;1.77;;;26.90;90.30;;;;;;5074280;28;20024;-46
2021/07/26 11:24:54;;;;;;;3.50;2.15;;;26.90;90.20;;;;;;5063506;28;20337;-46
2021/07/26 11:27:32;;;;;;;3.13;1.80;;;26.70;89.90;;;;;;5092527;28;20156;-48
2021/07/26 11:29:58;;;;;;;5.70;2.10;;;26.60;90.50;;;;;;5073993;28;20181;-47
2021/07/26 11:32:25;;;;;;;3.40;2.10;;;26.60;90.40;;;;;;5092137;28;20115;-46
2021/07/26 11:34:55;;;;;;;6.03;2.28;;;26.70;90.60;;;;;;5092221;28;20035;-47
2021/07/26 11:37:30;;;;;;;2.10;1.80;;;26.90;90.50;;;;;;5073886;28;20573;-47
2021/07/26 11:40:10;;;;;;;5.13;1.90;;;27.50;90.10;;;;;;5092626;28;20046;-47
2021/07/26 11:42:41;;;;;;;4.20;1.55;;;27.80;88.20;;;;;;5090369;28;20134;-47
2021/07/26 11:45:12;;;;;;;3.92;1.33;;;28.00;87.20;;;;;;5092402;28;20033;-47
2021/07/26 11:47:40;;;;;;;4.30;1.65;;;28.40;84.30;;;;;;5056123;28;20029;-48
2021/07/26 11:50:21;;;;;;;4.15;2.03;;;28.80;84.10;;;;;;5060048;28;20031;-48
2021/07/26 11:52:56;;;;;;;2.87;1.57;;;29.00;83.70;;;;;;5090803;28;20073;-46
2021/07/26 11:55:23;;;;;;;2.05;1.60;;;28.40;83.90;;;;;;5073992;28;20267;-49
2021/07/26 11:58:09;;;;;;;8.38;2.00;;;27.90;83.50;;;;;;5090866;28;20034;-47
2021/07/26 12:00:46;;;;;;;3.55;1.65;;;27.40;85.90;;;;;;5090841;28;20141;-48
2021/07/26 12:03:15;;;;;;;2.38;1.70;;;27.20;85.70;;;;;;5073490;28;20483;-47
2021/07/26 12:05:41;;;;;;;2.72;1.90;;;27.10;87.60;;;;;;5090777;28;20491;-50
2021/07/26 12:08:14;;;;;;;2.97;1.50;;;26.80;87.30;;;;;;5078183;28;20139;-52
2021/07/26 12:10:40;;;;;;;7.75;2.10;;;26.30;88.50;;;;;;5070529;28;20021;-47
2021/07/26 12:13:18;;;;;;;3.95;2.10;;;26.30;89.70;;;;;;5070199;28;20393;-47
2021/07/26 12:15:45;;;;;;;4.13;2.35;;;26.20;90.00;;;;;;5068032;28;20162;-47
2021/07/26 12:18:16;;;;;;;2.25;1.90;;;26.20;90.10;;;;;;5032246;28;20044;-47
2021/07/26 12:20:57;;;;;;;2.35;2.05;;;26.00;89.80;;;;;;5031595;28;20064;-47
2021/07/26 12:23:25;;;;;;;4.63;2.15;;;25.70;89.00;;;;;;5032211;28;20029;-48
2021/07/26 12:25:56;;;;;;;2.75;2.10;;;25.50;90.20;;;;;;5048898;28;20131;-48
2021/07/26 12:28:53;;;;;;;5.25;2.20;;;25.40;90.50;;;;;;5049007;28;20032;-46
2021/07/26 12:31:30;;;;;;;3.13;2.05;;;25.20;91.10;;;;;;5062778;28;20434;-48
2021/07/26 12:34:22;;;;;;;3.58;1.75;;;25.10;91.50;;;;;;5051309;28;20473;-47
2021/07/26 12:36:49;;;;;;;2.53;1.98;;;25.00;92.00;;;;;;5045500;28;20120;-47
2021/07/26 12:39:17;;;;;;;4.05;2.05;;;24.90;92.30;;;;;;5051516;28;20107;-50
2021/07/26 12:41:45;;;;;;;6.40;2.47;;;24.90;93.30;;;;;;5050805;28;20020;-47
2021/07/26 12:44:26;;;;;;;13.48;3.10;;;24.90;93.60;;;;;;5045721;28;20032;-46
2021/07/26 12:46:53;;;;;;;;;;;24.90;94.40;;;;;;5052030;28;20021;-50
2021/07/26 12:49:24;;;;;;;6.88;2.45;;;24.90;93.90;;;;;;5070127;28;19917;-47
2021/07/26 12:51:52;;;;;;;;;;;25.10;94.10;;;;;;5049394;28;20101;-47